createdAt,value
2024-01-11T00:01:27.196Z,51.66
2024-01-11T00:03:58.913Z,57.46
2024-01-11T00:06:30.718Z,50.39
2024-01-11T00:09:02.582Z,42.33
2024-01-11T00:11:34.308Z,37.34
2024-01-11T00:14:06.152Z,34.65
2024-01-11T00:16:38.520Z,33.07
2024-01-11T00:19:11.729Z,30.48
2024-01-11T00:21:43.471Z,29.47
2024-01-11T00:24:15.176Z,32.01
2024-01-11T00:26:46.841Z,36.01
2024-01-11T00:29:18.594Z,37.48
2024-01-11T00:31:51.020Z,39.68
2024-01-11T00:34:21.253Z,41.30
2024-01-11T00:36:53.201Z,41.94
2024-01-11T00:39:24.950Z,45.26
2024-01-11T00:41:56.646Z,45.99
2024-01-11T00:44:28.453Z,48.17
2024-01-11T00:47:00.258Z,50.12
2024-01-11T00:49:32.098Z,51.94
2024-01-11T00:52:04.197Z,56.00
2024-01-11T00:54:36.076Z,53.09
2024-01-11T00:57:08.323Z,44.98
2024-01-11T00:59:40.098Z,37.74
2024-01-11T01:02:12.092Z,34.37
2024-01-11T01:04:43.883Z,32.70
2024-01-11T01:07:15.554Z,31.46
2024-01-11T01:09:47.757Z,29.69
2024-01-11T01:12:19.458Z,28.54
2024-01-11T01:14:51.156Z,31.08
2024-01-11T01:17:22.967Z,34.06
2024-01-11T01:19:54.720Z,36.00
2024-01-11T01:22:26.441Z,38.31
2024-01-11T01:24:58.434Z,39.87
2024-01-11T01:27:30.150Z,41.46
2024-01-11T01:30:01.907Z,41.80
2024-01-11T01:32:33.850Z,43.40
2024-01-11T01:35:06.379Z,46.29
2024-01-11T01:37:38.097Z,46.44
2024-01-11T01:40:12.440Z,48.83
2024-01-11T01:42:46.835Z,50.14
2024-01-11T01:45:19.039Z,53.01
2024-01-11T01:47:50.842Z,50.94
2024-01-11T01:50:23.894Z,42.82
2024-01-11T01:52:57.187Z,37.75
2024-01-11T01:55:30.958Z,34.59
2024-01-11T01:58:05.928Z,32.71
2024-01-11T02:00:37.622Z,31.61
2024-01-11T02:03:10.920Z,28.86
2024-01-11T02:05:42.888Z,29.86
2024-01-11T02:08:22.147Z,32.42
2024-01-11T02:10:53.942Z,35.81
2024-01-11T02:13:25.583Z,38.10
2024-01-11T02:15:57.329Z,39.81
2024-01-11T02:18:29.108Z,41.31
2024-01-11T02:21:01.316Z,42.10
2024-01-11T02:23:33.885Z,42.61
2024-01-11T02:26:06.148Z,44.91
2024-01-11T02:28:37.913Z,45.81
2024-01-11T02:31:09.694Z,47.52
2024-01-11T02:33:42.340Z,50.00
2024-01-11T02:36:15.209Z,51.66
2024-01-11T02:38:46.942Z,53.16
2024-01-11T02:41:20.879Z,44.39
2024-01-11T02:43:54.199Z,38.32
2024-01-11T02:46:26.018Z,35.92
2024-01-11T02:48:57.746Z,33.75
2024-01-11T02:51:29.697Z,31.46
2024-01-11T02:54:01.550Z,30.56
2024-01-11T02:56:33.836Z,29.37
2024-01-11T02:59:05.754Z,30.50
2024-01-11T03:01:37.640Z,34.63
2024-01-11T03:04:09.573Z,37.64
2024-01-11T03:06:42.003Z,39.44
2024-01-11T03:09:13.779Z,42.13
2024-01-11T03:11:45.585Z,44.15
2024-01-11T03:14:17.338Z,45.71
2024-01-11T03:16:49.142Z,47.79
2024-01-11T03:19:20.893Z,49.78
2024-01-11T03:21:52.682Z,50.66
2024-01-11T03:24:24.360Z,51.51
2024-01-11T03:26:56.085Z,54.68
2024-01-11T03:29:27.805Z,53.48
2024-01-11T03:31:59.598Z,43.98
2024-01-11T03:34:31.462Z,38.35
2024-01-11T03:37:03.809Z,34.24
2024-01-11T03:39:36.321Z,33.43
2024-01-11T03:42:08.553Z,32.60
2024-01-11T03:44:41.531Z,31.12
2024-01-11T03:47:13.483Z,29.98
2024-01-11T03:49:45.215Z,32.92
2024-01-11T03:52:16.948Z,36.15
2024-01-11T03:54:48.700Z,39.33
2024-01-11T03:57:20.730Z,42.49
2024-01-11T03:59:52.392Z,44.36
2024-01-11T04:02:24.294Z,46.01
2024-01-11T04:04:56.208Z,46.53
2024-01-11T04:07:28.886Z,47.59
2024-01-11T04:10:01.501Z,49.93
2024-01-11T04:12:33.223Z,51.66
2024-01-11T04:15:05.780Z,52.69
2024-01-11T04:17:38.131Z,51.51
2024-01-11T04:20:12.563Z,52.98
2024-01-11T04:22:44.318Z,53.74
2024-01-11T04:25:16.674Z,58.53
2024-01-11T04:27:48.411Z,53.68
2024-01-11T04:30:20.164Z,45.66
2024-01-11T04:32:52.057Z,40.31
2024-01-11T04:35:24.047Z,37.23
2024-01-11T04:37:55.800Z,34.79
2024-01-11T04:40:27.677Z,33.42
2024-01-11T04:42:59.448Z,31.92
2024-01-11T04:45:31.145Z,31.91
2024-01-11T04:48:03.057Z,35.82
2024-01-11T04:50:34.997Z,39.93
2024-01-11T04:53:08.565Z,42.62
2024-01-11T04:55:40.664Z,44.33
2024-01-11T04:58:12.743Z,46.94
2024-01-11T05:00:44.883Z,49.37
2024-01-11T05:03:16.698Z,51.20
2024-01-11T05:05:48.547Z,53.61
2024-01-11T05:08:20.598Z,53.83
2024-01-11T05:10:52.389Z,54.34
2024-01-11T05:13:24.268Z,56.80
2024-01-11T05:15:55.975Z,61.51
2024-01-11T05:18:28.354Z,52.29
2024-01-11T05:21:01.100Z,44.46
2024-01-11T05:23:32.868Z,40.57
2024-01-11T05:26:04.772Z,37.93
2024-01-11T05:28:36.516Z,36.57
2024-01-11T05:31:12.612Z,35.53
2024-01-11T05:33:44.961Z,33.82
2024-01-11T05:36:17.221Z,33.40
2024-01-11T05:38:49.119Z,36.29
2024-01-11T05:41:20.912Z,39.76
2024-01-11T05:43:52.695Z,42.41
2024-01-11T05:46:24.402Z,44.57
2024-01-11T05:48:56.164Z,47.54
2024-01-11T05:51:28.392Z,49.88
2024-01-11T05:54:00.162Z,51.46
2024-01-11T05:56:31.958Z,52.23
2024-01-11T05:59:04.518Z,52.99
2024-01-11T06:01:42.633Z,55.56
2024-01-11T06:04:14.436Z,56.32
2024-01-11T06:06:46.152Z,57.46
2024-01-11T06:09:18.013Z,63.19
2024-01-11T06:11:49.783Z,63.56
2024-01-11T06:14:21.864Z,53.27
2024-01-11T06:16:53.573Z,48.03
2024-01-11T06:19:26.455Z,43.44
2024-01-11T06:21:58.267Z,41.24
2024-01-11T06:24:30.027Z,39.52
2024-01-11T06:27:01.757Z,38.94
2024-01-11T06:29:33.612Z,37.61
2024-01-11T06:32:05.707Z,37.95
2024-01-11T06:34:38.449Z,41.68
2024-01-11T06:37:10.161Z,45.13
2024-01-11T06:39:41.944Z,49.10
2024-01-11T06:42:13.690Z,51.33
2024-01-11T06:44:45.447Z,53.65
2024-01-11T06:47:17.380Z,54.18
2024-01-11T06:49:49.140Z,57.36
2024-01-11T06:52:21.125Z,58.13
2024-01-11T06:54:52.900Z,60.98
2024-01-11T06:57:25.956Z,67.45
2024-01-11T06:59:58.276Z,61.79
2024-01-11T07:02:28.614Z,50.87
2024-01-11T07:05:00.536Z,50.31
2024-01-11T07:07:32.331Z,53.18
2024-01-11T07:10:06.694Z,56.52
2024-01-11T07:12:40.232Z,57.33
2024-01-11T07:15:14.008Z,58.90
2024-01-11T07:17:45.743Z,61.13
2024-01-11T07:20:18.650Z,65.89
2024-01-11T07:22:50.676Z,67.62
2024-01-11T07:25:22.475Z,56.09
2024-01-11T07:27:54.228Z,51.32
2024-01-11T07:30:26.484Z,54.19
2024-01-11T07:32:58.678Z,57.64
2024-01-11T07:35:30.746Z,59.27
2024-01-11T07:38:02.502Z,62.85
2024-01-11T07:40:36.185Z,67.67
2024-01-11T07:43:09.677Z,59.66
2024-01-11T07:45:41.486Z,51.35
2024-01-11T07:48:13.363Z,53.04
2024-01-11T07:50:45.689Z,55.57
2024-01-11T07:53:16.158Z,59.88
2024-01-11T07:55:49.134Z,61.63
2024-01-11T07:58:21.639Z,67.43
2024-01-11T08:00:53.734Z,60.32
2024-01-11T08:03:25.429Z,51.75
2024-01-11T08:08:29.135Z,55.37
2024-01-11T08:11:01.268Z,58.85
2024-01-11T08:13:33.310Z,61.62
2024-01-11T08:16:06.025Z,66.96
2024-01-11T08:18:37.930Z,66.99
2024-01-11T08:21:10.835Z,53.90
2024-01-11T08:23:47.116Z,51.06
2024-01-11T08:26:20.718Z,54.79
2024-01-11T08:28:52.768Z,57.89
2024-01-11T08:31:24.462Z,59.31
2024-01-11T08:33:56.988Z,61.58
2024-01-11T08:36:35.381Z,67.36
2024-01-11T08:39:08.613Z,62.75
2024-01-11T08:41:40.762Z,52.61
2024-01-11T08:44:13.553Z,52.52
2024-01-11T08:46:46.171Z,55.54
2024-01-11T08:49:16.553Z,59.44
2024-01-11T08:51:49.096Z,60.86
2024-01-11T08:54:22.193Z,65.97
2024-01-11T08:56:54.262Z,65.26
2024-01-11T08:59:27.053Z,55.00
2024-01-11T09:02:10.147Z,53.03
2024-01-11T09:04:48.652Z,56.16
2024-01-11T09:07:20.649Z,59.86
2024-01-11T09:09:56.751Z,64.85
2024-01-11T09:12:29.485Z,64.21
2024-01-11T09:15:01.182Z,54.98
2024-01-11T09:17:34.209Z,52.28
2024-01-11T09:20:06.874Z,54.91
2024-01-11T09:22:38.703Z,59.63
2024-01-11T09:25:11.347Z,62.20
2024-01-11T09:27:43.081Z,68.75
2024-01-11T09:30:16.143Z,62.99
2024-01-11T09:32:49.028Z,53.47
2024-01-11T09:35:21.179Z,53.42
2024-01-11T09:37:53.039Z,57.21
2024-01-11T09:40:24.976Z,61.28
2024-01-11T09:42:56.899Z,66.99
2024-01-11T09:45:28.918Z,64.33
2024-01-11T09:48:02.973Z,54.72
2024-01-11T09:50:35.091Z,53.50
2024-01-11T09:53:09.934Z,56.89
2024-01-11T09:55:41.951Z,59.62
2024-01-11T09:58:15.322Z,65.84
2024-01-11T10:00:47.937Z,65.02
2024-01-11T10:03:21.380Z,55.40
2024-01-11T10:05:57.696Z,53.74
2024-01-11T10:08:30.308Z,57.47
2024-01-11T10:11:02.017Z,61.40
2024-01-11T10:13:37.248Z,67.13
2024-01-11T10:16:14.582Z,63.71
2024-01-11T10:18:46.832Z,53.48
2024-01-11T10:21:18.925Z,52.96
2024-01-11T10:23:51.006Z,57.48
2024-01-11T10:26:22.889Z,60.25
2024-01-11T10:28:55.233Z,65.98
2024-01-11T10:31:29.011Z,64.13
2024-01-11T10:34:00.859Z,54.83
2024-01-11T10:36:34.074Z,53.82
2024-01-11T10:39:08.132Z,55.81
2024-01-11T10:41:43.038Z,59.27
2024-01-11T10:44:24.967Z,64.28
2024-01-11T10:47:00.528Z,67.18
2024-01-11T10:49:35.362Z,58.73
2024-01-11T10:52:09.846Z,52.51
2024-01-11T10:54:44.164Z,55.63
2024-01-11T10:57:18.552Z,60.15
2024-01-11T10:59:53.008Z,64.85
2024-01-11T11:02:26.226Z,65.21
2024-01-11T11:05:00.835Z,56.04
2024-01-11T11:07:33.139Z,53.63
2024-01-11T11:10:06.614Z,57.16
2024-01-11T11:12:40.160Z,61.98
2024-01-11T11:15:14.584Z,67.24
2024-01-11T11:17:47.736Z,60.45
2024-01-11T11:20:20.659Z,52.54
2024-01-11T11:23:07.544Z,55.54
2024-01-11T11:25:41.913Z,59.53
2024-01-11T11:28:15.716Z,66.32
2024-01-11T11:30:50.380Z,62.03
2024-01-11T11:33:24.111Z,53.89
2024-01-11T11:35:59.937Z,55.89
2024-01-11T11:38:34.462Z,58.82
2024-01-11T11:41:06.890Z,63.62
2024-01-11T11:43:41.995Z,68.06
2024-01-11T11:46:14.416Z,59.43
2024-01-11T11:48:57.674Z,53.83
2024-01-11T11:51:30.166Z,57.27
2024-01-11T11:54:04.447Z,60.98
2024-01-11T11:56:38.394Z,66.43
2024-01-11T11:59:10.363Z,61.99
2024-01-11T12:01:42.780Z,53.85
2024-01-11T12:04:17.911Z,54.25
2024-01-11T12:06:50.491Z,58.83
2024-01-11T12:09:24.541Z,63.81
2024-01-11T12:12:02.691Z,64.22
2024-01-11T12:14:44.210Z,54.37
2024-01-11T12:17:16.243Z,54.16
2024-01-11T12:19:47.948Z,56.99
2024-01-11T12:22:21.223Z,62.32
2024-01-11T12:24:53.007Z,66.16
2024-01-11T12:27:24.852Z,59.57
2024-01-11T12:29:59.613Z,52.63
2024-01-11T12:32:32.843Z,55.38
2024-01-11T12:35:06.546Z,57.76
2024-01-11T12:37:38.293Z,61.00
2024-01-11T12:40:14.714Z,66.97
2024-01-11T12:42:47.089Z,65.02
2024-01-11T12:45:19.082Z,55.21
2024-01-11T12:47:51.010Z,54.71
2024-01-11T12:50:24.902Z,58.14
2024-01-11T12:53:19.792Z,62.27
2024-01-11T12:56:09.639Z,65.94
2024-01-11T12:58:42.153Z,57.90
2024-01-11T13:01:13.583Z,53.57
2024-01-11T13:03:48.786Z,55.93
2024-01-11T13:06:21.337Z,60.54
2024-01-11T13:08:54.175Z,65.88
2024-01-11T13:11:26.153Z,65.42
2024-01-11T13:14:00.235Z,56.70
2024-01-11T13:16:32.210Z,53.84
2024-01-11T13:19:13.329Z,56.88
2024-01-11T13:21:51.098Z,60.92
2024-01-11T13:24:22.880Z,66.47
2024-01-11T13:26:56.687Z,60.14
2024-01-11T13:29:28.624Z,53.16
2024-01-11T13:32:02.989Z,54.84
2024-01-11T13:34:37.193Z,59.11
2024-01-11T13:37:08.898Z,64.89
2024-01-11T13:39:40.648Z,64.46
2024-01-11T13:42:12.355Z,56.53
2024-01-11T13:44:45.476Z,54.18
2024-01-11T13:47:17.276Z,57.81
2024-01-11T13:49:49.279Z,62.62
2024-01-11T13:52:19.899Z,65.90
2024-01-11T13:54:51.625Z,61.04
2024-01-11T13:57:23.863Z,53.91
2024-01-11T13:59:54.070Z,54.89
2024-01-11T14:02:25.823Z,59.22
2024-01-11T14:04:57.575Z,65.59
2024-01-11T14:07:29.743Z,62.97
2024-01-11T14:10:02.011Z,55.10
2024-01-11T14:12:34.072Z,55.08
2024-01-11T14:15:08.127Z,58.22
2024-01-11T14:17:40.941Z,64.66
2024-01-11T14:20:15.973Z,63.04
2024-01-11T14:22:50.569Z,55.49
2024-01-11T14:25:24.054Z,55.28
2024-01-11T14:27:57.393Z,59.72
2024-01-11T14:30:29.128Z,65.94
2024-01-11T14:33:00.959Z,62.75
2024-01-11T14:35:33.543Z,55.42
2024-01-11T14:38:05.935Z,56.34
2024-01-11T14:40:38.113Z,59.80
2024-01-11T14:43:10.083Z,65.20
2024-01-11T14:45:42.053Z,63.61
2024-01-11T14:48:13.923Z,56.27
2024-01-11T14:50:46.028Z,55.07
2024-01-11T14:53:16.692Z,58.99
2024-01-11T14:55:48.437Z,61.40
2024-01-11T14:58:20.352Z,68.07
2024-01-11T15:00:53.106Z,65.03
2024-01-11T15:03:26.222Z,55.41
2024-01-11T15:05:58.176Z,55.12
2024-01-11T15:08:30.216Z,59.93
2024-01-11T15:11:02.347Z,65.30
2024-01-11T15:13:34.881Z,63.65
2024-01-11T15:16:07.790Z,56.16
2024-01-11T15:18:39.604Z,55.66
2024-01-11T15:21:11.361Z,60.45
2024-01-11T15:23:43.131Z,65.83
2024-01-11T15:26:15.121Z,62.64
2024-01-11T15:28:47.416Z,55.48
2024-01-11T15:31:19.736Z,56.18
2024-01-11T15:33:51.866Z,60.21
2024-01-11T15:36:25.445Z,67.11
2024-01-11T15:39:04.629Z,62.90
2024-01-11T15:41:48.592Z,55.39
2024-01-11T15:44:20.405Z,56.37
2024-01-11T15:46:52.253Z,59.95
2024-01-11T15:49:24.765Z,66.16
2024-01-11T15:51:57.322Z,63.00
2024-01-11T15:54:29.671Z,54.68
2024-01-11T15:57:01.449Z,56.38
2024-01-11T15:59:33.154Z,61.05
2024-01-11T16:02:07.646Z,66.45
2024-01-11T16:04:42.577Z,60.39
2024-01-11T16:07:14.870Z,54.54
2024-01-11T16:09:47.400Z,57.10
2024-01-11T16:12:20.897Z,59.98
2024-01-11T16:14:52.837Z,64.95
2024-01-11T16:17:25.032Z,64.59
2024-01-11T16:19:56.993Z,56.29
2024-01-11T16:22:28.765Z,55.14
2024-01-11T16:25:00.503Z,59.29
2024-01-11T16:27:32.961Z,64.30
2024-01-11T16:30:05.657Z,64.57
2024-01-11T16:32:37.615Z,57.38
2024-01-11T16:35:10.709Z,55.48
2024-01-11T16:37:42.415Z,58.77
2024-01-11T16:40:15.791Z,63.31
2024-01-11T16:42:48.595Z,68.14
2024-01-11T16:45:20.893Z,61.57
2024-01-11T16:47:52.050Z,53.97
2024-01-11T16:50:24.965Z,55.64
2024-01-11T16:52:56.772Z,60.01
2024-01-11T16:55:28.685Z,64.67
2024-01-11T16:57:59.637Z,66.01
2024-01-11T17:00:31.523Z,59.55
2024-01-11T17:03:04.084Z,53.90
2024-01-11T17:05:37.085Z,56.36
2024-01-11T17:08:09.571Z,61.28
2024-01-11T17:10:41.316Z,66.75
2024-01-11T17:13:13.658Z,63.23
2024-01-11T17:15:45.719Z,56.25
2024-01-11T17:18:17.719Z,56.26
2024-01-11T17:20:50.304Z,59.93
2024-01-11T17:23:22.166Z,64.58
2024-01-11T17:25:53.997Z,64.25
2024-01-11T17:28:28.144Z,56.44
2024-01-11T17:31:00.223Z,55.35
2024-01-11T17:33:32.422Z,59.59
2024-01-11T17:36:02.858Z,64.58
2024-01-11T17:38:35.098Z,63.49
2024-01-11T17:41:07.496Z,56.86
2024-01-11T17:43:39.589Z,56.51
2024-01-11T17:46:11.346Z,59.75
2024-01-11T17:48:43.215Z,61.62
2024-01-11T17:51:15.203Z,68.11
2024-01-11T17:53:47.798Z,64.36
2024-01-11T17:56:21.317Z,57.32
2024-01-11T17:58:53.432Z,55.91
2024-01-11T18:01:24.469Z,59.29
2024-01-11T18:03:54.846Z,64.43
2024-01-11T18:06:26.785Z,68.10
2024-01-11T18:08:57.270Z,60.87
2024-01-11T18:11:29.070Z,55.44
2024-01-11T18:14:01.281Z,56.68
2024-01-11T18:16:33.056Z,60.14
2024-01-11T18:19:05.026Z,65.12
2024-01-11T18:21:37.092Z,63.89
2024-01-11T18:24:09.205Z,57.29
2024-01-11T18:26:39.351Z,55.47
2024-01-11T18:29:11.138Z,57.57
2024-01-11T18:31:43.055Z,63.93
2024-01-11T18:34:14.783Z,65.48
2024-01-11T18:36:49.713Z,58.96
2024-01-11T18:39:21.437Z,54.90
2024-01-11T18:41:53.906Z,57.81
2024-01-11T18:44:26.935Z,60.87
2024-01-11T18:46:58.701Z,66.54
2024-01-11T18:49:30.444Z,64.18
2024-01-11T18:52:02.497Z,56.84
2024-01-11T18:54:34.186Z,55.31
2024-01-11T18:57:07.482Z,59.49
2024-01-11T18:59:39.749Z,65.00
2024-01-11T19:02:11.460Z,63.33
2024-01-11T19:04:43.248Z,56.73
2024-01-11T19:07:15.510Z,55.68
2024-01-11T19:09:46.786Z,59.24
2024-01-11T19:12:18.552Z,63.63
2024-01-11T19:14:51.855Z,66.61
2024-01-11T19:17:24.705Z,59.71
2024-01-11T19:19:57.395Z,55.75
2024-01-11T19:22:29.169Z,57.93
2024-01-11T19:25:01.007Z,62.30
2024-01-11T19:27:32.819Z,66.52
2024-01-11T19:30:09.260Z,60.88
2024-01-11T19:32:41.707Z,55.31
2024-01-11T19:35:14.422Z,55.85
2024-01-11T19:37:46.148Z,59.69
2024-01-11T19:40:18.382Z,65.45
2024-01-11T19:42:50.395Z,63.94
2024-01-11T19:45:22.517Z,56.66
2024-01-11T19:47:52.727Z,54.94
2024-01-11T19:50:25.194Z,57.94
2024-01-11T19:52:57.293Z,60.98
2024-01-11T19:55:27.604Z,66.92
2024-01-11T19:58:00.209Z,65.45
2024-01-11T20:00:32.027Z,59.26
2024-01-11T20:03:03.949Z,54.38
2024-01-11T20:05:35.845Z,56.09
2024-01-11T20:08:07.948Z,59.15
2024-01-11T20:10:40.249Z,64.80
2024-01-11T20:13:11.934Z,62.67
2024-01-11T20:15:44.288Z,55.50
2024-01-11T20:18:16.171Z,55.34
2024-01-11T20:20:48.105Z,58.69
2024-01-11T20:23:21.203Z,62.75
2024-01-11T20:25:52.969Z,67.42
2024-01-11T20:28:27.459Z,60.81
2024-01-11T20:30:59.194Z,55.16
2024-01-11T20:33:31.235Z,58.04
2024-01-11T20:36:06.991Z,60.89
2024-01-11T20:38:39.233Z,65.70
2024-01-11T20:41:14.928Z,64.01
2024-01-11T20:43:46.776Z,56.60
2024-01-11T20:46:24.394Z,56.09
2024-01-11T20:48:56.265Z,59.78
2024-01-11T20:51:28.118Z,64.89
2024-01-11T20:54:02.098Z,64.20
2024-01-11T20:56:34.018Z,56.67
2024-01-11T20:59:05.922Z,55.94
2024-01-11T21:01:37.710Z,59.13
2024-01-11T21:04:09.548Z,60.90
2024-01-11T21:06:41.537Z,66.84
2024-01-11T21:09:13.371Z,66.05
2024-01-11T21:11:45.568Z,57.67
2024-01-11T21:14:17.446Z,55.14
2024-01-11T21:16:50.029Z,57.78
2024-01-11T21:19:21.824Z,60.63
2024-01-11T21:21:53.628Z,66.36
2024-01-11T21:24:25.280Z,64.42
2024-01-11T21:26:57.104Z,57.38
2024-01-11T21:29:28.889Z,53.69
2024-01-11T21:32:00.642Z,56.54
2024-01-11T21:34:32.350Z,59.07
2024-01-11T21:37:04.075Z,61.30
2024-01-11T21:39:36.758Z,67.60
2024-01-11T21:42:09.124Z,65.54
2024-01-11T21:44:40.796Z,56.62
2024-01-11T21:47:12.496Z,54.75
2024-01-11T21:49:44.251Z,57.98
2024-01-11T21:52:16.189Z,60.44
2024-01-11T21:54:47.860Z,65.58
2024-01-11T21:57:19.541Z,65.75
2024-01-11T21:59:51.299Z,57.16
2024-01-11T22:02:23.127Z,54.24
2024-01-11T22:04:55.056Z,56.17
2024-01-11T22:07:26.767Z,59.57
2024-01-11T22:09:58.459Z,64.17
2024-01-11T22:12:30.133Z,67.60
2024-01-11T22:15:03.846Z,59.71
2024-01-11T22:17:36.810Z,53.99
2024-01-11T22:20:11.509Z,55.65
2024-01-11T22:22:43.285Z,59.27
2024-01-11T22:25:15.386Z,61.93
2024-01-11T22:27:46.944Z,68.38
2024-01-11T22:30:19.920Z,65.53
2024-01-11T22:32:52.138Z,57.64
2024-01-11T22:35:24.315Z,53.78
2024-01-11T22:37:56.683Z,56.90
2024-01-11T22:40:28.496Z,59.46
2024-01-11T22:43:00.362Z,62.27
2024-01-11T22:45:35.397Z,68.23
2024-01-11T22:48:08.682Z,62.12
2024-01-11T22:50:40.887Z,54.63
2024-01-11T22:53:13.013Z,55.39
2024-01-11T22:55:43.487Z,58.60
2024-01-11T22:58:15.435Z,63.40
2024-01-11T23:00:48.777Z,65.21
2024-01-11T23:03:22.114Z,57.63
2024-01-11T23:05:54.043Z,54.60
2024-01-11T23:08:26.090Z,57.42
2024-01-11T23:10:58.083Z,61.50
2024-01-11T23:13:29.985Z,66.27
2024-01-11T23:16:02.696Z,64.65
2024-01-11T23:18:36.951Z,56.71
2024-01-11T23:21:09.153Z,54.83
2024-01-11T23:23:41.373Z,58.54
2024-01-11T23:26:13.278Z,61.26
2024-01-11T23:28:45.407Z,66.14
2024-01-11T23:31:17.509Z,64.09
2024-01-11T23:33:47.939Z,56.65
2024-01-11T23:36:19.933Z,55.26
2024-01-11T23:38:53.081Z,57.68
2024-01-11T23:41:25.044Z,60.88
2024-01-11T23:43:55.510Z,64.57
2024-01-11T23:46:27.402Z,66.87
2024-01-11T23:48:59.493Z,58.78
2024-01-11T23:51:29.989Z,54.40
2024-01-11T23:54:02.331Z,56.63
2024-01-11T23:56:34.936Z,59.98
2024-01-11T23:59:06.894Z,66.22
